Jackson, Montana
Current Conditions -  °F | °C
As of 11:53 PM on Wednesday 22 Oct 2014 (Local Time) from KDLN Reporting Station
Clear Clear  
Wind Chill: 38°   Ceiling: Unl
Heat Index: 41°   Visibility: 10mi
Dew Point: 28°   Wind: 5mph
Humidity: 60%   Direction: 300°WNW
Pressure: 30.03"   Gusts: NA
Location:  45.37°N, 113.41°W
Report Text: KDLN 230553Z AUTO 30004KT 10SM CLR 05/M02 A3003 RMK AO2 SLP158 T00501022 10106 20033 58007
Loading
Personal Weather Stations






























Interactive Weather Map
Tropical Storm Tracking
New forecast layout! Learn more

10-Day Weather Forecast

Advertisements
Track Severe Weather on mobile